Главная страница
METAR-TAF:

METAR-TAF

Аэропорты :

Гуйлинь, Китай

широта: 25-20N, долгота: 110-18E, высота над уровнем моря: 166 м

Текущие метеонаблюдения

Эта сводка был подготовлена 1 час и 0 минут назад, в 03:00 UTC
Ветер 4 Узел переменных направлений
Температура 10°C
Влажность 93%
Давление 1017 hPa
Видимость: 3000 м
Рассеянная облачность на высоте 3000 фута
Сплошная облачность на высоте 4300 фута
дымка

METAR: ZGKL 240300Z VRB02MPS 3000 BR BKN030 OVC043 10/09 Q1017 BECMG FM0400 2800

Время: 12:00 (04:00 UTC)

Прогноз

Эта сводка был подготовлена 8 часа и 45 минут назад, в 19:15 UTC
Прогноз действительный с 24-го 00 UTC до 24-го 24 UTC
Ветер 8 Узел от северо-восточный
Видимость: 4000 м
Отдельные облака на высоте 3300 фута
Сплошная облачность на высоте 5000 фута
небольшой дождь, дымка

TAF: ZGKL 231915Z 2400/2424 05004MPS 4000 -RA BR SCT033 OVC050 TX13/2407Z TN03/2424Z

Метеонаблюдения и прогнозы для более 4000 аэропортов (сводки METAR и TAF).

Имеющиеся станции представлены на карте желтыми и красными точками.

Чтобы увидеть название станции, наведите на нее мышь.

Затем щелкните, чтобы увидеть метеонаблюдения и метеопрогнозы.

Управление картой: чтобы увеличить масштаб, щелкните зеленые кнопки с черным крестиком; чтобы уменьшить масштаб, щелкните зеленую кнопку с тире; для просмотра соседних карт щелкайте зеленые стрелки.


METAR-TAF: